createdAt,value
2023-04-18T00:00:58.714Z,956.2250
2023-04-18T00:02:02.663Z,956.2242
2023-04-18T00:03:06.802Z,956.2042
2023-04-18T00:04:11.045Z,956.2000
2023-04-18T00:05:15.275Z,956.1808
2023-04-18T00:06:19.172Z,956.1758
2023-04-18T00:07:23.086Z,956.1884
2023-04-18T00:08:26.981Z,956.1766
2023-04-18T00:09:30.925Z,956.1816
2023-04-18T00:10:35.049Z,956.1716
2023-04-18T00:11:38.956Z,956.1825
2023-04-18T00:12:43.312Z,956.1934
2023-04-18T00:13:47.241Z,956.1833
2023-04-18T00:14:51.124Z,956.1891
2023-04-18T00:15:55.054Z,956.1917
2023-04-18T00:16:58.988Z,956.1992
2023-04-18T00:18:03.328Z,956.2067
2023-04-18T00:19:07.280Z,956.2117
2023-04-18T00:20:11.450Z,956.2000
2023-04-18T00:21:15.331Z,956.1909
2023-04-18T00:22:19.247Z,956.1942
2023-04-18T00:23:23.155Z,956.1884
2023-04-18T00:24:27.054Z,956.1850
2023-04-18T00:25:30.972Z,956.1950
2023-04-18T00:26:34.872Z,956.1875
2023-04-18T00:27:39.049Z,956.1884
2023-04-18T00:28:42.926Z,956.1783
2023-04-18T00:29:47.072Z,956.1542
2023-04-18T00:30:50.988Z,956.1425
2023-04-18T00:31:54.874Z,956.1342
2023-04-18T00:32:58.807Z,956.1191
2023-04-18T00:34:02.716Z,956.1183
2023-04-18T00:35:06.947Z,956.1175
2023-04-18T00:36:10.849Z,956.1116
2023-04-18T00:37:14.771Z,956.1292
2023-04-18T00:38:18.720Z,956.1434
2023-04-18T00:39:22.617Z,956.1342
2023-04-18T00:40:26.781Z,956.1334
2023-04-18T00:41:30.709Z,956.1309
2023-04-18T00:42:34.913Z,956.1359
2023-04-18T00:43:38.989Z,956.1467
2023-04-18T00:44:42.899Z,956.1392
2023-04-18T00:45:46.828Z,956.1384
2023-04-18T00:46:50.722Z,956.1384
2023-04-18T00:47:54.656Z,956.1284
2023-04-18T00:48:58.586Z,956.1108
2023-04-18T00:50:02.492Z,956.1108
2023-04-18T00:51:06.400Z,956.1158
2023-04-18T00:52:10.305Z,956.1100
2023-04-18T00:53:14.215Z,956.1041
2023-04-18T00:54:18.125Z,956.0983
2023-04-18T00:55:22.247Z,956.0942
2023-04-18T00:56:26.167Z,956.0975
2023-04-18T00:57:30.286Z,956.1016
2023-04-18T00:58:34.196Z,956.0925
2023-04-18T00:59:38.107Z,956.0925
2023-04-18T01:00:42.017Z,956.0809
2023-04-18T01:01:45.926Z,956.0734
2023-04-18T01:02:50.302Z,956.0717
2023-04-18T01:03:54.318Z,956.0700
2023-04-18T01:04:58.520Z,956.0634
2023-04-18T01:06:02.413Z,956.0533
2023-04-18T01:07:06.369Z,956.0392
2023-04-18T01:08:10.238Z,956.0200
2023-04-18T01:09:14.161Z,956.0175
2023-04-18T01:10:18.384Z,956.0016
2023-04-18T01:11:22.275Z,956.0016
2023-04-18T01:12:26.186Z,955.9866
2023-04-18T01:13:30.081Z,955.9891
2023-04-18T01:14:33.987Z,955.9883
2023-04-18T01:15:37.948Z,955.9766
2023-04-18T01:16:41.814Z,955.9708
2023-04-18T01:17:45.729Z,955.9642
2023-04-18T01:18:49.657Z,955.9567
2023-04-18T01:19:53.817Z,955.9617
2023-04-18T01:20:57.730Z,955.9542
2023-04-18T01:22:01.622Z,955.9450
2023-04-18T01:23:05.528Z,955.9434
2023-04-18T01:24:09.429Z,955.9442
2023-04-18T01:25:13.334Z,955.9384
2023-04-18T01:26:17.269Z,955.9191
2023-04-18T01:27:21.442Z,955.9108
2023-04-18T01:28:25.337Z,955.8958
2023-04-18T01:29:29.480Z,955.8842
2023-04-18T01:30:33.387Z,955.8658
2023-04-18T01:31:37.346Z,955.8533
2023-04-18T01:32:41.293Z,955.8433
2023-04-18T01:33:45.187Z,955.8342
2023-04-18T01:34:49.114Z,955.8317
2023-04-18T01:35:53.029Z,955.8184
2023-04-18T01:36:56.922Z,955.8159
2023-04-18T01:38:00.827Z,955.8217
2023-04-18T01:39:04.741Z,955.8066
2023-04-18T01:40:08.979Z,955.7908
2023-04-18T01:41:12.859Z,955.7800
2023-04-18T01:42:16.773Z,955.7725
2023-04-18T01:43:20.684Z,955.7684
2023-04-18T01:44:24.594Z,955.7491
2023-04-18T01:45:28.511Z,955.7466
2023-04-18T01:46:32.473Z,955.7366
2023-04-18T01:47:36.558Z,955.7366
2023-04-18T01:48:40.483Z,955.7391
2023-04-18T01:49:44.374Z,955.7200
2023-04-18T01:50:48.287Z,955.7108
2023-04-18T01:51:52.181Z,955.6959
2023-04-18T01:52:56.107Z,955.6942
2023-04-18T01:54:00.020Z,955.7034
2023-04-18T01:55:04.146Z,955.6825
2023-04-18T01:56:08.070Z,955.6816
2023-04-18T01:57:12.005Z,955.6775
2023-04-18T01:58:15.909Z,955.6775
2023-04-18T01:59:19.810Z,955.6716
2023-04-18T02:00:23.934Z,955.6641
2023-04-18T02:01:27.888Z,955.6666
2023-04-18T02:02:32.087Z,955.6666
2023-04-18T02:03:36.259Z,955.6666
2023-04-18T02:04:40.236Z,955.6550
2023-04-18T02:05:44.171Z,955.6350
2023-04-18T02:06:48.079Z,955.6241
2023-04-18T02:07:52.008Z,955.6191
2023-04-18T02:08:55.934Z,955.6175
2023-04-18T02:10:00.071Z,955.6125
2023-04-18T02:11:03.934Z,955.6066
2023-04-18T02:12:08.084Z,955.5892
2023-04-18T02:13:11.989Z,955.5942
2023-04-18T02:14:15.928Z,955.5908
2023-04-18T02:15:19.888Z,955.5875
2023-04-18T02:16:23.831Z,955.5775
2023-04-18T02:17:27.740Z,955.5692
2023-04-18T02:18:31.607Z,955.5558
2023-04-18T02:19:35.765Z,955.5609
2023-04-18T02:20:39.651Z,955.5525
2023-04-18T02:21:43.557Z,955.5575
2023-04-18T02:22:47.466Z,955.5575
2023-04-18T02:23:51.383Z,955.5659
2023-04-18T02:24:55.532Z,955.5659
2023-04-18T02:25:59.436Z,955.5667
2023-04-18T02:27:03.329Z,955.5616
2023-04-18T02:28:07.229Z,955.5625
2023-04-18T02:29:11.134Z,955.5591
2023-04-18T02:30:15.029Z,955.5367
2023-04-18T02:31:18.931Z,955.5175
2023-04-18T02:32:22.850Z,955.5184
2023-04-18T02:33:26.745Z,955.5217
2023-04-18T02:34:30.956Z,955.5250
2023-04-18T02:35:34.829Z,955.5175
2023-04-18T02:36:38.711Z,955.5167
2023-04-18T02:37:42.608Z,955.5284
2023-04-18T02:38:46.493Z,955.5267
2023-04-18T02:39:50.396Z,955.5184
2023-04-18T02:40:54.308Z,955.5134
2023-04-18T02:41:58.436Z,955.5067
2023-04-18T02:43:02.332Z,955.5109
2023-04-18T02:44:06.237Z,955.5109
2023-04-18T02:45:10.377Z,955.5067
2023-04-18T02:46:14.323Z,955.5009
2023-04-18T02:47:18.207Z,955.4833
2023-04-18T02:48:22.114Z,955.4916
2023-04-18T02:49:25.979Z,955.4858
2023-04-18T02:50:29.887Z,955.4833
2023-04-18T02:51:33.814Z,955.4875
2023-04-18T02:52:37.722Z,955.4950
2023-04-18T02:53:41.658Z,955.5034
2023-04-18T02:54:45.741Z,955.5025
2023-04-18T02:55:49.626Z,955.4958
2023-04-18T02:56:53.740Z,955.4808
2023-04-18T02:57:57.624Z,955.4858
2023-04-18T02:59:01.519Z,955.4833
2023-04-18T03:00:05.381Z,955.4708
2023-04-18T03:01:09.313Z,955.4608
2023-04-18T03:02:13.466Z,955.4575
2023-04-18T03:03:17.391Z,955.4484
2023-04-18T03:04:21.310Z,955.4650
2023-04-18T03:05:25.187Z,955.4617
2023-04-18T03:06:29.074Z,955.4384
2023-04-18T03:07:33.009Z,955.4459
2023-04-18T03:08:36.920Z,955.4359
2023-04-18T03:09:41.040Z,955.4384
2023-04-18T03:10:44.920Z,955.4200
2023-04-18T03:11:48.914Z,955.4067
2023-04-18T03:12:52.804Z,955.3884
2023-04-18T03:13:56.722Z,955.3859
2023-04-18T03:15:00.624Z,955.3859
2023-04-18T03:16:04.629Z,955.3691
2023-04-18T03:17:08.761Z,955.3608
2023-04-18T03:18:12.681Z,955.3492
2023-04-18T03:19:16.831Z,955.3500
2023-04-18T03:20:20.733Z,955.3392
2023-04-18T03:21:24.624Z,955.3400
2023-04-18T03:22:28.525Z,955.3417
2023-04-18T03:23:32.407Z,955.3375
2023-04-18T03:24:36.521Z,955.3259
2023-04-18T03:25:40.402Z,955.3325
2023-04-18T03:26:44.524Z,955.3450
2023-04-18T03:27:48.407Z,955.3475
2023-04-18T03:28:52.301Z,955.3492
2023-04-18T03:29:56.185Z,955.3408
2023-04-18T03:31:00.144Z,955.3458
2023-04-18T03:32:04.055Z,955.3458
2023-04-18T03:33:07.953Z,955.3525
2023-04-18T03:34:12.120Z,955.3500
2023-04-18T03:35:16.217Z,955.3483
2023-04-18T03:36:20.138Z,955.3417
2023-04-18T03:37:24.046Z,955.3384
2023-04-18T03:38:27.944Z,955.3325
2023-04-18T03:39:32.078Z,955.3259
2023-04-18T03:40:35.966Z,955.3300
2023-04-18T03:41:39.835Z,955.3342
2023-04-18T03:42:43.724Z,955.3284
2023-04-18T03:43:47.594Z,955.3259
2023-04-18T03:44:51.498Z,955.3359
2023-04-18T03:45:55.411Z,955.3442
2023-04-18T03:46:59.614Z,955.3433
2023-04-18T03:48:03.502Z,955.3325
2023-04-18T03:49:07.560Z,955.3284
2023-04-18T03:50:11.439Z,955.3175
2023-04-18T03:51:15.316Z,955.3242
2023-04-18T03:52:19.198Z,955.3134
2023-04-18T03:53:23.081Z,955.3041
2023-04-18T03:54:27.281Z,955.3066
2023-04-18T03:55:31.172Z,955.2975
2023-04-18T03:56:35.793Z,955.3033
2023-04-18T03:57:41.275Z,955.2950
2023-04-18T03:58:39.983Z,955.2900
2023-04-18T03:59:45.567Z,955.2925
2023-04-18T04:00:45.274Z,955.2954
2023-04-18T04:01:49.488Z,955.3033
2023-04-18T04:02:53.520Z,955.3066
2023-04-18T04:03:57.559Z,955.3134
2023-04-18T04:05:01.519Z,955.3000
2023-04-18T04:06:05.445Z,955.3041
2023-04-18T04:07:09.571Z,955.3317
2023-04-18T04:08:13.475Z,955.3417
2023-04-18T04:09:17.374Z,955.3334
2023-04-18T04:10:21.282Z,955.3317
2023-04-18T04:11:25.197Z,955.3317
2023-04-18T04:12:29.156Z,955.3750
2023-04-18T04:13:33.036Z,955.3850
2023-04-18T04:14:37.035Z,955.3842
2023-04-18T04:15:40.928Z,955.3608
2023-04-18T04:16:45.027Z,955.4175
2023-04-18T04:17:48.976Z,955.4150
2023-04-18T04:18:52.865Z,955.3934
2023-04-18T04:19:56.748Z,955.3967
2023-04-18T04:21:00.660Z,955.4141
2023-04-18T04:22:04.558Z,955.4175
2023-04-18T04:23:08.467Z,955.4492
2023-04-18T04:24:12.534Z,955.4883
2023-04-18T04:25:16.546Z,955.4241
2023-04-18T04:26:20.460Z,955.4400
2023-04-18T04:27:24.383Z,955.4817
2023-04-18T04:28:28.272Z,955.5184
2023-04-18T04:29:32.423Z,955.5342
2023-04-18T04:30:36.313Z,955.5250
2023-04-18T04:31:40.472Z,955.5450
2023-04-18T04:32:44.375Z,955.5258
2023-04-18T04:33:48.242Z,955.5441
2023-04-18T04:34:52.121Z,955.5525
2023-04-18T04:35:56.024Z,955.5550
2023-04-18T04:36:59.914Z,955.5392
2023-04-18T04:38:03.813Z,955.5550
2023-04-18T04:39:07.938Z,955.5416
2023-04-18T04:40:11.847Z,955.5400
2023-04-18T04:41:15.709Z,955.5283
2023-04-18T04:42:19.588Z,955.5475
2023-04-18T04:43:23.488Z,955.5583
2023-04-18T04:44:27.700Z,955.5675
2023-04-18T04:45:31.612Z,955.5684
2023-04-18T04:46:35.773Z,955.5867
2023-04-18T04:47:39.739Z,955.6008
2023-04-18T04:48:43.649Z,955.6141
2023-04-18T04:49:47.493Z,955.6100
2023-04-18T04:50:51.376Z,955.6200
2023-04-18T04:51:55.285Z,955.6141
2023-04-18T04:52:59.185Z,955.6208
2023-04-18T04:54:03.109Z,955.6166
2023-04-18T04:55:06.988Z,955.6050
2023-04-18T04:56:10.859Z,955.6208
2023-04-18T04:57:14.768Z,955.6133
2023-04-18T04:58:18.685Z,955.6067
2023-04-18T04:59:22.989Z,955.6250
2023-04-18T05:00:26.910Z,955.6342
2023-04-18T05:01:31.061Z,955.6325
2023-04-18T05:02:35.050Z,955.6158
2023-04-18T05:03:39.438Z,955.6191
2023-04-18T05:04:43.431Z,955.5842
2023-04-18T05:05:47.275Z,955.5692
2023-04-18T05:06:51.264Z,955.5634
2023-04-18T05:07:55.153Z,955.5742
2023-04-18T05:08:59.043Z,955.6008
2023-04-18T05:10:02.969Z,955.5992
2023-04-18T05:11:06.863Z,955.5734
2023-04-18T05:12:11.012Z,955.5692
2023-04-18T05:13:14.915Z,955.5641
2023-04-18T05:14:19.025Z,955.5616
2023-04-18T05:15:22.914Z,955.5600
2023-04-18T05:16:26.872Z,955.5667
2023-04-18T05:17:30.789Z,955.5775
2023-04-18T05:18:35.092Z,955.5800
2023-04-18T05:19:39.019Z,955.5825
2023-04-18T05:20:42.901Z,955.5734
2023-04-18T05:21:46.779Z,955.5942
2023-04-18T05:22:50.686Z,955.5850
2023-04-18T05:23:54.867Z,955.5825
2023-04-18T05:24:58.749Z,955.5900
2023-04-18T05:26:02.678Z,955.5825
2023-04-18T05:27:06.592Z,955.5817
2023-04-18T05:28:10.471Z,955.5875
2023-04-18T05:29:14.347Z,955.5817
2023-04-18T05:30:18.264Z,955.5867
2023-04-18T05:31:22.201Z,955.5784
2023-04-18T05:32:26.057Z,955.5900
2023-04-18T05:33:29.953Z,955.5958
2023-04-18T05:34:33.839Z,955.5900
2023-04-18T05:35:37.745Z,955.6008
2023-04-18T05:36:41.658Z,955.6225
2023-04-18T05:37:45.541Z,955.6359
2023-04-18T05:38:49.456Z,955.6400
2023-04-18T05:39:53.343Z,955.6467
2023-04-18T05:40:57.221Z,955.6500
2023-04-18T05:42:01.367Z,955.6558
2023-04-18T05:43:05.269Z,955.6608
2023-04-18T05:44:09.186Z,955.6691
2023-04-18T05:45:13.086Z,955.6800
2023-04-18T05:46:17.300Z,955.6984
2023-04-18T05:47:21.275Z,955.6967
2023-04-18T05:48:25.188Z,955.7084
2023-04-18T05:49:29.063Z,955.7050
2023-04-18T05:50:32.958Z,955.6884
2023-04-18T05:51:37.083Z,955.6875
2023-04-18T05:52:40.984Z,955.6942
2023-04-18T05:53:44.855Z,955.6884
2023-04-18T05:54:48.757Z,955.6925
2023-04-18T05:55:52.635Z,955.6950
2023-04-18T05:56:56.528Z,955.6992
2023-04-18T05:58:00.437Z,955.7042
2023-04-18T05:59:04.587Z,955.7034
2023-04-18T06:00:08.476Z,955.7100
2023-04-18T06:01:12.407Z,955.7142
2023-04-18T06:02:16.379Z,955.7108
2023-04-18T06:03:20.600Z,955.7317
2023-04-18T06:04:24.670Z,955.7366
2023-04-18T06:05:28.899Z,955.7333
2023-04-18T06:06:33.239Z,955.7391
2023-04-18T06:07:37.132Z,955.7509
2023-04-18T06:08:41.055Z,955.7592
2023-04-18T06:09:44.970Z,955.7567
2023-04-18T06:10:48.885Z,955.7675
2023-04-18T06:11:52.828Z,955.7767
2023-04-18T06:12:56.704Z,955.7759
2023-04-18T06:14:00.863Z,955.7867
2023-04-18T06:15:04.762Z,955.7858
2023-04-18T06:16:08.878Z,955.7991
2023-04-18T06:17:12.859Z,955.8209
2023-04-18T06:18:16.738Z,955.8408
2023-04-18T06:19:20.651Z,955.8458
2023-04-18T06:20:24.544Z,955.8591
2023-04-18T06:21:28.436Z,955.8658
2023-04-18T06:22:32.326Z,955.8725
2023-04-18T06:23:36.454Z,955.8834
2023-04-18T06:24:40.345Z,955.8917
2023-04-18T06:25:44.225Z,955.8884
2023-04-18T06:26:48.391Z,955.8917
2023-04-18T06:27:52.270Z,955.8992
2023-04-18T06:28:56.189Z,955.9083
2023-04-18T06:30:00.165Z,955.9058
2023-04-18T06:31:04.081Z,955.9133
2023-04-18T06:32:07.964Z,955.9116
2023-04-18T06:33:11.821Z,955.9200
2023-04-18T06:34:15.905Z,955.9191
2023-04-18T06:35:19.968Z,955.9067
2023-04-18T06:36:24.102Z,955.9116
2023-04-18T06:37:27.995Z,955.9050
2023-04-18T06:38:31.875Z,955.9050
2023-04-18T06:39:35.799Z,955.8975
2023-04-18T06:40:39.738Z,955.8909
2023-04-18T06:41:43.649Z,955.8892
2023-04-18T06:42:47.563Z,955.8983
2023-04-18T06:44:02.851Z,955.9075
2023-04-18T06:44:55.947Z,955.9236
2023-04-18T06:45:59.944Z,955.9266
2023-04-18T06:47:03.845Z,955.9300
2023-04-18T06:48:07.820Z,955.9233
2023-04-18T06:49:11.694Z,955.9275
2023-04-18T06:50:15.579Z,955.9375
2023-04-18T06:51:19.483Z,955.9459
2023-04-18T06:52:23.948Z,955.9391
2023-04-18T06:53:27.818Z,955.9400
2023-04-18T06:54:31.718Z,955.9325
2023-04-18T06:55:35.629Z,955.9409
2023-04-18T06:56:39.565Z,955.9417
2023-04-18T06:57:43.463Z,955.9459
2023-04-18T06:58:47.370Z,955.9492
2023-04-18T06:59:51.261Z,955.9475
2023-04-18T07:00:55.190Z,955.9409
2023-04-18T07:01:59.087Z,955.9467
2023-04-18T07:03:03.101Z,955.9316
2023-04-18T07:04:07.166Z,955.9359
2023-04-18T07:05:11.106Z,955.9475
2023-04-18T07:06:14.995Z,955.9517
2023-04-18T07:07:18.934Z,955.9600
2023-04-18T07:08:22.906Z,955.9683
2023-04-18T07:09:26.860Z,955.9642
2023-04-18T07:10:30.774Z,955.9741
2023-04-18T07:11:34.926Z,955.9783
2023-04-18T07:12:38.833Z,955.9708
2023-04-18T07:13:42.973Z,955.9708
2023-04-18T07:14:46.918Z,955.9717
2023-04-18T07:15:50.813Z,955.9717
2023-04-18T07:16:54.774Z,955.9683
2023-04-18T07:17:58.803Z,955.9600
2023-04-18T07:19:02.704Z,955.9691
2023-04-18T07:20:06.619Z,955.9550
2023-04-18T07:21:10.610Z,955.9484
2023-04-18T07:22:14.531Z,955.9500
2023-04-18T07:23:18.456Z,955.9475
2023-04-18T07:24:22.392Z,955.9425
2023-04-18T07:25:26.310Z,955.9592
2023-04-18T07:26:30.241Z,955.9617
2023-04-18T07:27:34.151Z,955.9650
2023-04-18T07:28:38.401Z,955.9775
2023-04-18T07:29:42.285Z,955.9642
2023-04-18T07:30:46.294Z,955.9775
2023-04-18T07:31:50.216Z,955.9800
2023-04-18T07:32:54.189Z,955.9866
2023-04-18T07:33:58.130Z,955.9875
2023-04-18T07:35:02.157Z,955.9925
2023-04-18T07:36:06.088Z,956.0117
2023-04-18T07:37:10.015Z,956.0125
2023-04-18T07:38:13.963Z,956.0217
2023-04-18T07:39:17.858Z,956.0275
2023-04-18T07:40:21.837Z,956.0466
2023-04-18T07:41:25.730Z,956.0442
2023-04-18T07:42:29.642Z,956.0475
2023-04-18T07:43:33.546Z,956.0566
2023-04-18T07:44:37.509Z,956.0609
2023-04-18T07:45:41.408Z,956.0483
2023-04-18T07:46:45.411Z,956.0491
2023-04-18T07:47:49.388Z,956.0583
2023-04-18T07:48:53.282Z,956.0650
2023-04-18T07:49:57.269Z,956.0800
2023-04-18T07:51:01.187Z,956.0858
2023-04-18T07:52:05.123Z,956.0884
2023-04-18T07:53:09.292Z,956.0975
2023-04-18T07:54:13.242Z,956.0917
2023-04-18T07:55:17.170Z,956.0983
2023-04-18T07:56:21.097Z,956.0950
2023-04-18T07:57:25.019Z,956.0958
2023-04-18T07:58:28.956Z,956.1234
2023-04-18T07:59:32.871Z,956.1259
2023-04-18T08:00:36.827Z,956.1434
2023-04-18T08:01:40.799Z,956.1575
2023-04-18T08:02:44.814Z,956.1633
2023-04-18T08:03:48.868Z,956.1691
2023-04-18T08:04:53.054Z,956.1833
2023-04-18T08:05:57.126Z,956.1816
2023-04-18T08:07:01.070Z,956.1891
2023-04-18T08:08:05.014Z,956.1675
2023-04-18T08:09:08.919Z,956.1608
2023-04-18T08:10:13.107Z,956.1791
2023-04-18T08:11:17.010Z,956.1708
2023-04-18T08:12:20.940Z,956.1583
2023-04-18T08:13:24.873Z,956.1558
2023-04-18T08:14:28.848Z,956.1583
2023-04-18T08:15:33.050Z,956.1633
2023-04-18T08:16:37.002Z,956.1766
2023-04-18T08:17:40.979Z,956.1675
2023-04-18T08:18:44.906Z,956.1550
2023-04-18T08:19:48.859Z,956.1700
2023-04-18T08:20:52.817Z,956.1658
2023-04-18T08:21:56.886Z,956.1666
2023-04-18T08:23:07.323Z,956.1575
2023-04-18T08:24:05.406Z,956.1409
2023-04-18T08:25:09.505Z,956.1417
2023-04-18T08:26:13.426Z,956.1384
2023-04-18T08:27:17.367Z,956.1234
2023-04-18T08:28:21.536Z,956.1275
2023-04-18T08:29:25.446Z,956.1508
2023-04-18T08:30:29.429Z,956.1434
2023-04-18T08:31:33.436Z,956.1533
2023-04-18T08:32:37.507Z,956.1583
2023-04-18T08:33:41.453Z,956.1683
2023-04-18T08:34:45.372Z,956.1708
2023-04-18T08:35:49.334Z,956.1733
2023-04-18T08:36:53.312Z,956.1791
2023-04-18T08:37:57.311Z,956.1825
2023-04-18T08:39:01.236Z,956.1891
2023-04-18T08:40:05.207Z,956.1850
2023-04-18T08:41:09.169Z,956.2017
2023-04-18T08:42:13.082Z,956.1992
2023-04-18T08:43:17.048Z,956.2175
2023-04-18T08:44:21.046Z,956.2208
2023-04-18T08:45:25.016Z,956.2291
2023-04-18T08:46:29.261Z,956.2183
2023-04-18T08:47:33.189Z,956.2325
2023-04-18T08:48:37.228Z,956.2341
2023-04-18T08:49:41.161Z,956.2350
2023-04-18T08:50:45.185Z,956.2491
2023-04-18T08:51:49.057Z,956.2609
2023-04-18T08:52:52.993Z,956.2775
2023-04-18T08:53:56.925Z,956.2775
2023-04-18T08:55:01.006Z,956.2908
2023-04-18T08:56:04.935Z,956.2842
2023-04-18T08:57:09.009Z,956.3041
2023-04-18T08:58:13.015Z,956.2983
2023-04-18T08:59:16.993Z,956.3016
2023-04-18T09:00:21.005Z,956.3041
2023-04-18T09:01:24.966Z,956.3184
2023-04-18T09:02:28.920Z,956.3091
2023-04-18T09:03:32.870Z,956.3150
2023-04-18T09:04:36.959Z,956.3134
2023-04-18T09:05:41.186Z,956.3167
2023-04-18T09:06:46.050Z,956.3250
2023-04-18T09:07:49.951Z,956.3325
2023-04-18T09:08:53.845Z,956.3350
2023-04-18T09:09:53.969Z,956.3382
2023-04-18T09:10:57.860Z,956.3458
2023-04-18T09:12:01.790Z,956.3350
2023-04-18T09:13:05.699Z,956.3267
2023-04-18T09:14:09.629Z,956.3400
2023-04-18T09:15:13.606Z,956.3392
2023-04-18T09:16:17.561Z,956.3433
2023-04-18T09:17:21.522Z,956.3192
2023-04-18T09:18:25.715Z,956.3167
2023-04-18T09:19:29.644Z,956.3033
2023-04-18T09:20:33.585Z,956.3167
2023-04-18T09:21:37.492Z,956.3150
2023-04-18T09:22:41.406Z,956.3150
2023-04-18T09:23:45.336Z,956.3091
2023-04-18T09:24:49.224Z,956.3116
2023-04-18T09:25:53.154Z,956.2950
2023-04-18T09:26:57.098Z,956.2908
2023-04-18T09:28:01.273Z,956.2825
2023-04-18T09:29:05.358Z,956.2717
2023-04-18T09:30:09.272Z,956.2634
2023-04-18T09:31:13.306Z,956.2600
2023-04-18T09:32:17.314Z,956.2717
2023-04-18T09:33:21.211Z,956.2917
2023-04-18T09:34:25.213Z,956.2966
2023-04-18T09:35:29.103Z,956.2917
2023-04-18T09:36:33.105Z,956.3109
2023-04-18T09:37:37.010Z,956.2941
2023-04-18T09:38:41.112Z,956.2892
2023-04-18T09:39:45.146Z,956.3100
2023-04-18T09:40:49.081Z,956.3209
2023-04-18T09:41:52.990Z,956.3192
2023-04-18T09:42:56.961Z,956.3217
2023-04-18T09:44:00.875Z,956.3275
2023-04-18T09:45:05.121Z,956.3417
2023-04-18T09:46:09.079Z,956.3558
2023-04-18T09:47:13.080Z,956.3458
2023-04-18T09:48:16.973Z,956.3666
2023-04-18T09:49:20.884Z,956.3583
2023-04-18T09:50:24.810Z,956.3716
2023-04-18T09:51:28.783Z,956.3675
2023-04-18T09:52:32.859Z,956.3658
2023-04-18T09:53:36.786Z,956.3716
2023-04-18T09:54:40.666Z,956.3783
2023-04-18T09:55:44.596Z,956.3550
2023-04-18T09:56:48.523Z,956.3691
2023-04-18T09:57:52.704Z,956.3800
2023-04-18T09:58:56.660Z,956.3658
2023-04-18T10:00:00.592Z,956.3633
2023-04-18T10:01:04.513Z,956.3458
2023-04-18T10:02:08.582Z,956.3467
2023-04-18T10:03:12.603Z,956.3300
2023-04-18T10:04:16.971Z,956.3433
2023-04-18T10:05:21.434Z,956.3483
2023-04-18T10:06:25.413Z,956.3458
2023-04-18T10:07:29.306Z,956.3550
2023-04-18T10:08:33.209Z,956.3517
2023-04-18T10:09:37.126Z,956.3508
2023-04-18T10:10:41.096Z,956.3433
2023-04-18T10:11:44.988Z,956.3350
2023-04-18T10:12:48.989Z,956.3367
2023-04-18T10:13:53.035Z,956.3550
2023-04-18T10:14:56.970Z,956.3708
2023-04-18T10:16:00.884Z,956.3725
2023-04-18T10:17:04.767Z,956.3741
2023-04-18T10:18:08.727Z,956.3784
2023-04-18T10:19:13.109Z,956.3809
2023-04-18T10:20:17.226Z,956.3850
2023-04-18T10:21:21.181Z,956.3766
2023-04-18T10:22:25.116Z,956.4000
2023-04-18T10:23:29.055Z,956.3975
2023-04-18T10:24:33.092Z,956.4017
2023-04-18T10:25:37.110Z,956.4142
2023-04-18T10:26:41.061Z,956.3967
2023-04-18T10:27:45.335Z,956.3975
2023-04-18T10:28:49.295Z,956.3850
2023-04-18T10:29:53.275Z,956.3884
2023-04-18T10:30:57.404Z,956.4166
2023-04-18T10:32:01.393Z,956.4200
2023-04-18T10:33:08.494Z,956.4409
2023-04-18T10:34:09.847Z,956.4554
2023-04-18T10:35:13.832Z,956.4341
2023-04-18T10:36:17.805Z,956.4333
2023-04-18T10:37:21.808Z,956.4283
2023-04-18T10:38:25.834Z,956.4092
2023-04-18T10:39:29.777Z,956.3883
2023-04-18T10:40:33.781Z,956.3875
2023-04-18T10:41:37.754Z,956.4100
2023-04-18T10:42:41.748Z,956.3917
2023-04-18T10:43:45.648Z,956.3867
2023-04-18T10:44:49.897Z,956.3792
2023-04-18T10:45:53.917Z,956.3550
2023-04-18T10:46:57.864Z,956.3383
2023-04-18T10:47:58.343Z,956.3127
2023-04-18T10:49:02.248Z,956.3150
2023-04-18T10:50:06.968Z,956.3234
2023-04-18T10:51:11.075Z,956.3141
2023-04-18T10:52:15.037Z,956.3000
2023-04-18T10:53:18.986Z,956.2767
2023-04-18T10:54:22.975Z,956.2717
2023-04-18T10:55:27.103Z,956.2491
2023-04-18T10:56:31.115Z,956.2491
2023-04-18T10:57:35.247Z,956.2567
2023-04-18T10:58:39.147Z,956.2416
2023-04-18T10:59:43.102Z,956.2383
2023-04-18T11:00:47.121Z,956.2308
2023-04-18T11:01:51.026Z,956.2167
2023-04-18T11:02:55.190Z,956.2000
2023-04-18T11:03:59.297Z,956.2034
2023-04-18T11:05:03.299Z,956.2117
2023-04-18T11:06:07.239Z,956.2350
2023-04-18T11:07:11.788Z,956.2283
2023-04-18T11:08:15.838Z,956.2133
2023-04-18T11:09:19.795Z,956.2034
2023-04-18T11:10:23.902Z,956.1984
2023-04-18T11:11:27.828Z,956.1683
2023-04-18T11:12:31.782Z,956.1800
2023-04-18T11:13:35.771Z,956.1816
2023-04-18T11:14:39.824Z,956.1766
2023-04-18T11:15:43.783Z,956.1733
2023-04-18T11:16:47.858Z,956.1791
2023-04-18T11:17:51.907Z,956.1608
2023-04-18T11:18:55.888Z,956.1800
2023-04-18T11:19:59.927Z,956.1875
2023-04-18T11:21:03.951Z,956.1984
2023-04-18T11:22:07.906Z,956.2108
2023-04-18T11:23:11.944Z,956.1766
2023-04-18T11:24:16.039Z,956.1550
2023-04-18T11:25:20.147Z,956.1675
2023-04-18T11:26:24.217Z,956.1500
2023-04-18T11:27:28.163Z,956.1592
2023-04-18T11:28:32.167Z,956.1525
2023-04-18T11:29:36.468Z,956.1583
2023-04-18T11:30:40.361Z,956.1325
2023-04-18T11:31:44.378Z,956.1400
2023-04-18T11:32:48.354Z,956.1467
2023-04-18T11:33:52.287Z,956.1517
2023-04-18T11:34:56.268Z,956.1758
2023-04-18T11:36:00.288Z,956.1775
2023-04-18T11:37:04.213Z,956.1633
2023-04-18T11:38:08.157Z,956.1517
2023-04-18T11:39:12.117Z,956.1450
2023-04-18T11:40:16.277Z,956.1508
2023-04-18T11:41:20.242Z,956.1442
2023-04-18T11:42:24.457Z,956.1292
2023-04-18T11:43:28.352Z,956.1250
2023-04-18T11:44:33.764Z,956.1250
2023-04-18T11:45:34.096Z,956.1527
2023-04-18T11:46:38.368Z,956.1675
2023-04-18T11:47:42.579Z,956.1691
2023-04-18T11:48:46.499Z,956.1816
2023-04-18T11:49:50.509Z,956.1800
2023-04-18T11:50:54.465Z,956.1859
2023-04-18T11:51:58.627Z,956.1816
2023-04-18T11:53:02.537Z,956.1859
2023-04-18T11:54:06.465Z,956.1750
2023-04-18T11:55:10.660Z,956.1716
2023-04-18T11:56:14.585Z,956.1666
2023-04-18T11:57:18.523Z,956.1550
2023-04-18T11:58:22.461Z,956.1517
2023-04-18T11:59:26.400Z,956.1517
2023-04-18T12:00:30.383Z,956.1658
2023-04-18T12:01:34.281Z,956.1841
2023-04-18T12:02:38.472Z,956.1766
2023-04-18T12:03:42.669Z,956.1959
2023-04-18T12:04:47.037Z,956.1992
2023-04-18T12:05:51.370Z,956.2042
2023-04-18T12:06:55.393Z,956.1992
2023-04-18T12:07:59.291Z,956.2092
2023-04-18T12:09:03.193Z,956.2175
2023-04-18T12:10:07.370Z,956.2125
2023-04-18T12:11:11.320Z,956.2067
2023-04-18T12:12:15.275Z,956.2058
2023-04-18T12:13:19.238Z,956.1975
2023-04-18T12:14:23.292Z,956.1850
2023-04-18T12:15:27.304Z,956.1859
2023-04-18T12:16:31.295Z,956.1859
2023-04-18T12:17:35.275Z,956.2167
2023-04-18T12:18:39.271Z,956.2050
2023-04-18T12:19:43.132Z,956.2250
2023-04-18T12:20:47.105Z,956.1992
2023-04-18T12:21:51.050Z,956.2067
2023-04-18T12:22:55.052Z,956.2117
2023-04-18T12:23:58.979Z,956.1967
2023-04-18T12:25:02.885Z,956.1825
2023-04-18T12:26:06.816Z,956.1808
2023-04-18T12:27:11.025Z,956.1683
2023-04-18T12:28:14.975Z,956.1583
2023-04-18T12:29:19.292Z,956.1550
2023-04-18T12:30:23.187Z,956.1691
2023-04-18T12:31:27.214Z,956.1517